Damascus, OR

1:29 PM PDT on September 19, 2014 (GMT -0700)
Mr. Lightning | Change Station
CLOSE
Current Station
Personal Weather Station
Location: Damascus, OR
Elevation: 600 ft
Nearby Weather Stations

Elev 600 ft 45.43 °N, 122.42 °W | Updated 4 minutes ago

Clear
Clear
74.5 °F
Feels Like 77 °F
N
3.0
Wind Variable Wind from SE
Gusts 8.0 mph

Today
High -- | Low -- °F
--% Chance of Precip.
Yesterday
High -- | Low -- °F
Precip. -- in
6:53 AM 7:12 PM
Waning Crescent, 17% visible
Pressure 30.06 in
Visibility 10.0 miles
Clouds Clear
Heat Index 77 °F
Dew Point 57 °F
Humidity 54%
Rainfall 0.00 in
Snow Depth 0 in , 1 in , 0 in
UV 6 out of 12
Pollen 2.20 out of 12
Ozone Good
PM2.5 Good
Flu Activity Not available.
METAR KTTD 191953Z VRB03KT 10SM CLR 24/13 A3006 RMK AO2 SLP179 T02440128

More Conditions Fewer Conditions

Pressure 30.06 in
Visibility 10.0 miles
Clouds Clear
Heat Index 77 °F
Dew Point 57 °F
Humidity 54%
Rainfall 0.00 in
Snow Depth 0 in , 1 in , 0 in
UV 6 out of 12
Pollen 2.20 out of 12
Ozone Good
PM2.5 Good
Flu Activity Not available.
METAR KTTD 191953Z VRB03KT 10SM CLR 24/13 A3006 RMK AO2 SLP179 T02440128

More Conditions Fewer Conditions

10-Day Weather Forecast

Almanac

Astronomy

Sep. 19, 2014 Rise Set
Actual Time 6:53 AM PDT 7:12 PM PDT
Civil Twilight 6:23 AM PDT 7:42 PM PDT
Nautical Twilight 5:48 AM PDT 8:16 PM PDT
Astronomical Twilight 5:12 AM PDT 8:52 PM PDT
Moon 2:33 AM PDT 4:53 PM PDT
Length of Visible Light 13h 18m
Length of Day
12h 19m
Tomorrow will be 3m 10s shorter.
Waning Crescent, 17% of the Moon is Illuminated
Today
Waning Crescent
Sep 24
New
Oct 1
First Quarter
Oct 8
Full
Oct 15
Last Quarter

Today's Extremes

State Highs State Lows

Community

WunderPhotos

Upload Photos

1,754,693 photos uploaded!

WunderBlogs® & News

By Dr. Jeff Masters
Director of Meteorology, Weather Underground
By Kari Strenfel
Meteorologist, Weather Underground
By Christopher C. Burt
Weather Historian, Weather Underground
September 19, 2014
September 19, 2014
September 19, 2014

Nearby

Air Quality

  Air Quality AQ Index Pollutant
Yesterday Good
PM2.5
Yesterday Good
OZONE
Current Good
PM2.5
Current Good
OZONE
Friday Good
PM2.5

Snow Depth

Station Depth Elevation
Diamond Lake 0 in 5315 ft
Greenpoint 1 in 3200 ft
Eilertson Meadows 0 in 5400 ft
Irish Taylor 1 in 5500 ft
New Crescent Lake 0 in 4800 ft

Earthquake Activity

City Distance Mag. Time & Date
, 62 miles 3.0 5:00 AM PDT
2014-09-16
Minimum magnitude displayed is 2.5.

Coastal Water Temperatures

Place Temperature
No Stations Reporting

Nearby Weather Stations